Time;durP1;ratioP1;P1;durP2;ratioP2;P2;SDS_P1;SDS_P2;PMS_P1;PMS_P2;Temp;Humidity;BMP_temperature;BMP_pressure;BME280_temperature;BME280_humidity;BME280_pressure;Samples;Min_cycle;Max_cycle;Signal;HPM_P1;HPM_P2
2020/12/08 00:00:32;;;;;;;;;;;4.70;99.90;;;;;;5074600;28;19928;-70
2020/12/08 00:02:58;;;;;;;;;;;4.80;99.90;;;;;;5074019;28;19994;-70
2020/12/08 00:05:24;;;;;;;;;;;4.80;99.90;;;;;;5074492;28;19931;-69
2020/12/08 00:07:50;;;;;;;;;;;4.70;99.90;;;;;;5080813;28;19977;-70
2020/12/08 00:10:19;;;;;;;;;;;4.80;99.90;;;;;;5115055;28;19928;-70
2020/12/08 00:12:46;;;;;;;;;;;4.80;99.90;;;;;;5114944;28;19931;-70
2020/12/08 00:15:11;;;;;;;;;;;4.80;99.90;;;;;;5114963;28;19927;-69
2020/12/08 00:17:37;;;;;;;;;;;4.90;99.90;;;;;;5114831;28;19924;-69
2020/12/08 00:20:04;;;;;;;;;;;4.90;99.90;;;;;;5114689;28;19923;-70
2020/12/08 00:22:30;;;;;;;;;;;4.90;99.90;;;;;;5114063;28;20330;-69
2020/12/08 00:24:56;;;;;;;;;;;4.90;99.90;;;;;;5114640;28;19928;-69
2020/12/08 00:27:22;;;;;;;;;;;4.90;99.90;;;;;;5114254;28;19923;-70
2020/12/08 00:29:49;;;;;;;;;;;5.00;99.90;;;;;;5114105;28;20303;-69
2020/12/08 00:32:14;;;;;;;;;;;5.00;99.90;;;;;;5114105;28;20357;-69
2020/12/08 00:34:40;;;;;;;;;;;5.00;99.90;;;;;;5114480;28;19924;-69
2020/12/08 00:37:07;;;;;;;;;;;5.10;99.90;;;;;;5102762;28;19932;-69
2020/12/08 00:39:33;;;;;;;;;;;5.10;99.90;;;;;;5093804;28;20331;-69
2020/12/08 00:42:00;;;;;;;;;;;5.10;99.90;;;;;;5093368;28;19924;-69
2020/12/08 00:44:26;;;;;;;;;;;5.00;99.90;;;;;;5093529;28;20410;-69
2020/12/08 00:46:53;;;;;;;;;;;5.10;99.90;;;;;;5093632;28;19931;-69
2020/12/08 00:49:19;;;;;;;;;;;5.10;99.90;;;;;;5093790;28;19924;-69
2020/12/08 00:51:45;;;;;;;;;;;5.10;99.90;;;;;;5103465;28;19924;-69
2020/12/08 00:54:11;;;;;;;;;;;5.10;99.90;;;;;;5113872;28;19928;-69
2020/12/08 00:56:37;;;;;;;;;;;5.10;99.90;;;;;;5114175;28;19927;-69
2020/12/08 00:59:03;;;;;;;;;;;5.10;99.90;;;;;;5113766;28;20327;-69
2020/12/08 01:01:29;;;;;;;;;;;5.10;99.90;;;;;;5113555;28;20047;-69
2020/12/08 01:03:56;;;;;;;;;;;5.10;99.90;;;;;;5113645;28;19928;-69
2020/12/08 01:06:22;;;;;;;;;;;5.10;99.90;;;;;;5094361;28;19977;-69
2020/12/08 01:08:48;;;;;;;;;;;5.10;99.90;;;;;;5093310;28;19973;-69
2020/12/08 01:11:15;;;;;;;;;;;5.10;99.90;;;;;;5097971;28;19924;-69
2020/12/08 01:13:40;;;;;;;;;;;5.10;99.90;;;;;;5112915;28;20361;-69
2020/12/08 01:16:06;;;;;;;;;;;5.00;99.90;;;;;;5113716;28;19942;-69
2020/12/08 01:18:33;;;;;;;;;;;4.90;99.90;;;;;;5113165;28;19924;-69
2020/12/08 01:21:00;;;;;;;;;;;4.90;99.90;;;;;;5113071;28;19984;-69
2020/12/08 01:23:26;;;;;;;;;;;4.80;99.90;;;;;;5112970;28;19924;-69
2020/12/08 01:25:52;;;;;;;;;;;4.70;99.90;;;;;;5113640;28;20322;-69
2020/12/08 01:28:18;;;;;;;;;;;4.60;99.90;;;;;;5113370;28;19935;-69
2020/12/08 01:30:44;;;;;;;;;;;4.60;99.90;;;;;;5113177;28;19924;-69
2020/12/08 01:33:10;;;;;;;;;;;4.60;99.90;;;;;;5104391;28;20073;-69
2020/12/08 01:35:36;;;;;;;;;;;4.50;99.90;;;;;;5093029;28;19965;-69
2020/12/08 01:38:03;;;;;;;;;;;4.50;99.90;;;;;;5092748;28;19927;-70
2020/12/08 01:40:29;;;;;;;;;;;4.50;99.90;;;;;;5092137;28;20007;-70
2020/12/08 01:42:55;;;;;;;;;;;4.40;99.90;;;;;;5092474;28;19928;-69
2020/12/08 01:45:21;;;;;;;;;;;4.30;99.90;;;;;;5092518;28;19935;-69
2020/12/08 01:47:48;;;;;;;;;;;4.30;99.90;;;;;;5092785;28;19924;-69
2020/12/08 01:50:14;;;;;;;;;;;4.30;99.90;;;;;;5092363;28;19981;-69
2020/12/08 01:52:40;;;;;;;;;;;4.30;99.90;;;;;;5092156;28;19924;-69
2020/12/08 01:55:06;;;;;;;;;;;4.30;99.90;;;;;;5092808;28;20338;-69
2020/12/08 01:57:32;;;;;;;;;;;4.40;99.90;;;;;;5092720;28;19924;-69
2020/12/08 01:59:58;;;;;;;;;;;4.40;99.90;;;;;;5092560;28;19924;-70
2020/12/08 02:02:24;;;;;;;;;;;4.50;99.90;;;;;;5108242;28;20422;-70
2020/12/08 02:04:50;;;;;;;;;;;4.50;99.90;;;;;;5112746;28;20388;-70
2020/12/08 02:07:16;;;;;;;;;;;4.50;99.90;;;;;;5112364;28;19973;-70
2020/12/08 02:09:42;;;;;;;;;;;4.60;99.90;;;;;;5112885;28;19927;-70
2020/12/08 02:12:09;;;;;;;;;;;4.70;99.90;;;;;;5112262;28;19938;-70
2020/12/08 02:14:35;;;;;;;;;;;4.70;99.90;;;;;;5112997;28;19924;-70
2020/12/08 02:17:01;;;;;;;;;;;4.80;99.90;;;;;;5112733;28;20410;-70
2020/12/08 02:19:30;;;;;;;;;;;4.80;99.90;;;;;;5112706;28;19928;-70
2020/12/08 02:21:57;;;;;;;;;;;4.80;99.90;;;;;;5102333;28;19930;-70
2020/12/08 02:24:23;;;;;;;;;;;4.80;99.90;;;;;;5103736;28;20376;-70
2020/12/08 02:26:49;;;;;;;;;;;4.80;99.90;;;;;;5092440;28;19924;-70
2020/12/08 02:29:15;;;;;;;;;;;4.80;99.90;;;;;;5095902;28;20392;-70
2020/12/08 02:31:41;;;;;;;;;;;4.90;99.90;;;;;;5112084;28;19931;-70
2020/12/08 02:34:07;;;;;;;;;;;4.90;99.90;;;;;;5112978;28;19936;-70
2020/12/08 02:36:33;;;;;;;;;;;4.90;99.90;;;;;;5112387;28;19923;-70
2020/12/08 02:39:00;;;;;;;;;;;4.90;99.90;;;;;;5110723;28;19924;-70
2020/12/08 02:41:26;;;;;;;;;;;5.00;99.90;;;;;;5112288;28;19977;-70
2020/12/08 02:43:53;;;;;;;;;;;5.00;99.90;;;;;;5111639;28;19928;-70
2020/12/08 02:46:19;;;;;;;;;;;5.00;99.90;;;;;;5112266;28;20417;-70
2020/12/08 02:48:47;;;;;;;;;;;5.00;99.90;;;;;;5112422;28;20437;-70
2020/12/08 02:51:17;;;;;;;;;;;5.10;99.90;;;;;;5111784;28;20356;-69
2020/12/08 02:53:43;;;;;;;;;;;5.10;99.90;;;;;;5115595;28;20376;-69
2020/12/08 02:56:09;;;;;;;;;;;5.10;99.90;;;;;;5116263;28;19931;-69
2020/12/08 02:58:35;;;;;;;;;;;5.10;99.90;;;;;;5102276;28;19977;-69
2020/12/08 03:01:01;;;;;;;;;;;5.10;99.90;;;;;;5095915;28;19924;-69
2020/12/08 03:03:27;;;;;;;;;;;5.20;99.90;;;;;;5095589;28;20380;-70
2020/12/08 03:05:53;;;;;;;;;;;5.20;99.90;;;;;;5095788;28;19931;-69
2020/12/08 03:08:19;;;;;;;;;;;5.20;99.90;;;;;;5095741;28;19924;-70
2020/12/08 03:10:45;;;;;;;;;;;5.20;99.90;;;;;;5095442;28;19924;-71
2020/12/08 03:13:12;;;;;;;;;;;5.20;99.90;;;;;;5095340;28;19931;-69
2020/12/08 03:15:38;;;;;;;;;;;5.20;99.90;;;;;;5095553;28;19974;-69
2020/12/08 03:18:04;;;;;;;;;;;5.20;99.90;;;;;;5095529;28;19924;-69
2020/12/08 03:20:30;;;;;;;;;;;5.20;99.90;;;;;;5095490;28;20009;-69
2020/12/08 03:22:56;;;;;;;;;;;5.30;99.90;;;;;;5095122;28;20009;-70
2020/12/08 03:25:22;;;;;;;;;;;5.20;99.90;;;;;;5113063;28;19924;-69
2020/12/08 03:27:48;;;;;;;;;;;5.20;99.90;;;;;;5115453;28;19923;-70
2020/12/08 03:30:15;;;;;;;;;;;5.20;99.90;;;;;;5115360;28;19923;-70
2020/12/08 03:32:41;;;;;;;;;;;5.20;99.90;;;;;;5115359;28;19977;-70
2020/12/08 03:35:07;;;;;;;;;;;5.20;99.90;;;;;;5106438;28;19928;-70
2020/12/08 03:37:33;;;;;;;;;;;5.20;99.90;;;;;;5095155;28;19970;-70
2020/12/08 03:39:59;;;;;;;;;;;5.20;99.90;;;;;;5094966;28;19923;-69
2020/12/08 03:42:25;;;;;;;;;;;5.20;99.90;;;;;;5094510;28;19928;-70
2020/12/08 03:44:51;;;;;;;;;;;5.20;99.90;;;;;;5094964;28;19924;-71
2020/12/08 03:47:17;;;;;;;;;;;5.20;99.90;;;;;;5096669;28;19935;-69
2020/12/08 03:49:43;;;;;;;;;;;5.30;99.90;;;;;;5115309;28;19924;-71
2020/12/08 03:52:09;;;;;;;;;;;5.30;99.90;;;;;;5114562;28;19931;-71
2020/12/08 03:54:35;;;;;;;;;;;5.30;99.90;;;;;;5115166;28;19923;-70
2020/12/08 03:57:01;;;;;;;;;;;5.20;99.90;;;;;;5115026;28;19924;-70
2020/12/08 03:59:27;;;;;;;;;;;5.20;99.90;;;;;;5115199;28;20299;-69
2020/12/08 04:01:53;;;;;;;;;;;5.20;99.90;;;;;;5114771;28;19931;-70
2020/12/08 04:04:20;;;;;;;;;;;5.20;99.90;;;;;;5098530;28;19924;-69
2020/12/08 04:06:46;;;;;;;;;;;5.20;99.90;;;;;;5094416;28;19964;-70
2020/12/08 04:09:12;;;;;;;;;;;5.20;99.90;;;;;;5094172;28;19924;-69
2020/12/08 04:11:38;;;;;;;;;;;5.20;99.90;;;;;;5093992;28;19970;-70
2020/12/08 04:14:04;;;;;;;;;;;5.20;99.90;;;;;;5094346;28;19924;-70
2020/12/08 04:16:31;;;;;;;;;;;5.20;99.90;;;;;;5094360;28;19928;-70
2020/12/08 04:18:57;;;;;;;;;;;5.20;99.90;;;;;;5094278;28;19932;-70
2020/12/08 04:21:24;;;;;;;;;;;5.20;99.90;;;;;;5093887;28;19931;-70
2020/12/08 04:23:50;;;;;;;;;;;5.20;99.90;;;;;;5094111;28;20014;-70
2020/12/08 04:26:16;;;;;;;;;;;5.20;99.90;;;;;;5094291;28;19924;-69
2020/12/08 04:28:43;;;;;;;;;;;5.20;99.90;;;;;;5094022;28;19976;-71
2020/12/08 04:31:13;;;;;;;;;;;5.20;99.90;;;;;;5096252;28;20075;-70
2020/12/08 04:33:39;;;;;;;;;;;5.30;99.90;;;;;;5114138;28;19924;-69
2020/12/08 04:36:09;;;;;;;;;;;5.20;99.90;;;;;;5114503;28;19924;-69
2020/12/08 04:38:36;;;;;;;;;;;5.10;99.90;;;;;;5113939;28;20342;-69
2020/12/08 04:41:02;;;;;;;;;;;5.10;99.90;;;;;;5114284;28;19953;-69
2020/12/08 04:43:28;;;;;;;;;;;5.20;99.90;;;;;;5113797;28;19924;-69
2020/12/08 04:45:55;;;;;;;;;;;5.20;99.90;;;;;;5114160;28;19924;-69
2020/12/08 04:48:20;;;;;;;;;;;5.20;99.90;;;;;;5114116;28;19953;-69
2020/12/08 04:50:49;;;;;;;;;;;5.20;99.90;;;;;;5113862;28;19927;-69
2020/12/08 04:53:15;;;;;;;;;;;5.20;99.90;;;;;;5114120;28;19924;-69
2020/12/08 04:55:42;;;;;;;;;;;5.20;99.90;;;;;;5113832;28;19923;-69
2020/12/08 04:58:08;;;;;;;;;;;5.10;99.90;;;;;;5114047;28;19927;-69
2020/12/08 05:00:39;;;;;;;;;;;5.10;99.90;;;;;;5101287;28;20396;-70
2020/12/08 05:03:05;;;;;;;;;;;5.10;99.90;;;;;;5094389;28;19928;-69
2020/12/08 05:05:37;;;;;;;;;;;5.10;99.90;;;;;;5093170;28;19931;-71
2020/12/08 05:08:08;;;;;;;;;;;5.10;99.90;;;;;;5093348;28;19928;-70
2020/12/08 05:10:34;;;;;;;;;;;5.10;99.90;;;;;;5093349;28;19927;-69
2020/12/08 05:13:01;;;;;;;;;;;5.10;99.90;;;;;;5092997;28;20399;-70
2020/12/08 05:15:27;;;;;;;;;;;5.10;99.90;;;;;;5093171;28;19928;-69
2020/12/08 05:18:03;;;;;;;;;;;5.10;99.90;;;;;;5093004;28;19924;-68
2020/12/08 05:20:29;;;;;;;;;;;5.10;99.90;;;;;;5092869;28;20338;-70
2020/12/08 05:22:56;;;;;;;;;;;5.10;99.90;;;;;;5092972;28;19924;-69
2020/12/08 05:25:24;;;;;;;;;;;5.10;99.90;;;;;;5093105;28;19928;-71
2020/12/08 05:27:51;;;;;;;;;;;5.10;99.90;;;;;;5093008;28;19924;-70
2020/12/08 05:30:18;;;;;;;;;;;5.10;99.90;;;;;;5092815;28;20442;-71
2020/12/08 05:32:44;;;;;;;;;;;5.10;99.90;;;;;;5092493;28;19928;-71
2020/12/08 05:35:11;;;;;;;;;;;5.10;99.90;;;;;;5093192;28;19925;-71
2020/12/08 05:37:38;;;;;;;;;;;5.10;99.90;;;;;;5092869;28;19994;-74
2020/12/08 05:40:05;;;;;;;;;;;5.10;99.90;;;;;;5095583;28;19924;-72
2020/12/08 05:42:33;;;;;;;;;;;5.10;99.90;;;;;;5112867;28;20012;-70
2020/12/08 05:44:59;;;;;;;;;;;5.10;99.90;;;;;;5112985;28;19924;-71
2020/12/08 05:47:26;;;;;;;;;;;5.10;99.90;;;;;;5113097;28;19977;-69
2020/12/08 05:50:00;;;;;;;;;;;5.10;99.90;;;;;;5113146;28;19931;-69
2020/12/08 05:52:30;;;;;;;;;;;5.00;99.90;;;;;;5112752;28;20015;-70
2020/12/08 05:55:06;;;;;;;;;;;5.00;99.90;;;;;;5112663;28;20523;-70
2020/12/08 05:57:32;;;;;;;;;;;5.00;99.90;;;;;;5113352;28;19923;-70
2020/12/08 05:59:58;;;;;;;;;;;5.00;99.90;;;;;;5112775;28;19924;-69
2020/12/08 06:02:28;;;;;;;;;;;5.00;99.90;;;;;;5112713;28;19924;-68
2020/12/08 06:04:54;;;;;;;;;;;5.00;99.90;;;;;;5112804;28;20327;-72
2020/12/08 06:07:26;;;;;;;;;;;4.90;99.90;;;;;;5112761;28;19948;-69
2020/12/08 06:10:01;;;;;;;;;;;4.90;99.90;;;;;;5097098;28;19993;-69
2020/12/08 06:12:27;;;;;;;;;;;4.90;99.90;;;;;;5092240;28;19924;-70
2020/12/08 06:14:53;;;;;;;;;;;5.00;99.90;;;;;;5092613;28;19932;-70
2020/12/08 06:17:19;;;;;;;;;;;5.00;99.90;;;;;;5092377;28;19957;-70
2020/12/08 06:19:46;;;;;;;;;;;5.00;99.90;;;;;;5092341;28;20281;-70
2020/12/08 06:22:14;;;;;;;;;;;5.00;99.90;;;;;;5092261;28;19928;-68
2020/12/08 06:24:50;;;;;;;;;;;4.90;99.90;;;;;;5092392;28;19970;-72
2020/12/08 06:27:23;;;;;;;;;;;4.90;99.90;;;;;;5094046;28;19931;-70
2020/12/08 06:29:52;;;;;;;;;;;4.90;99.90;;;;;;5096454;28;19970;-71
2020/12/08 06:32:22;;;;;;;;;;;4.80;99.90;;;;;;5095853;28;19931;-71
2020/12/08 06:34:49;;;;;;;;;;;4.80;99.90;;;;;;5096539;28;19950;-71
2020/12/08 06:37:15;;;;;;;;;;;4.80;99.90;;;;;;5102965;28;19927;-71
2020/12/08 06:39:41;;;;;;;;;;;4.80;99.90;;;;;;5116843;28;19935;-73
2020/12/08 06:42:11;;;;;;;;;;;4.80;99.90;;;;;;5116373;28;19932;-73
2020/12/08 06:44:37;;;;;;;;;;;4.80;99.90;;;;;;5116562;28;19928;-74
2020/12/08 06:47:03;;;;;;;;;;;4.80;99.90;;;;;;5116330;28;19924;-74
2020/12/08 06:49:34;;;;;;;;;;;4.80;99.90;;;;;;5116705;28;20524;-76
2020/12/08 06:52:01;;;;;;;;;;;4.80;99.90;;;;;;5108747;28;19924;-78
2020/12/08 06:54:28;;;;;;;;;;;;;;;;;;5095756;28;19928;-78
2020/12/08 06:56:54;;;;;;;;;;;;;;;;;;5095939;28;19978;-76
2020/12/08 06:59:21;;;;;;;;;;;4.90;99.90;;;;;;5095794;28;19924;-73
2020/12/08 07:01:49;;;;;;;;;;;4.90;99.90;;;;;;5095386;28;19928;-73
2020/12/08 07:04:15;;;;;;;;;;;4.80;99.90;;;;;;5095401;28;20441;-69
2020/12/08 07:06:41;;;;;;;;;;;4.80;99.90;;;;;;5095548;28;19924;-68
2020/12/08 07:09:07;;;;;;;;;;;4.70;99.90;;;;;;5095746;28;20434;-69
2020/12/08 07:11:34;;;;;;;;;;;;;;;;;;5096339;28;19925;-70
2020/12/08 07:14:00;;;;;;;;;;;4.70;99.90;;;;;;5095420;28;19928;-69
2020/12/08 07:16:27;;;;;;;;;;;4.70;99.90;;;;;;5091342;28;21587;-69
2020/12/08 07:18:54;;;;;;;;;;;4.60;99.90;;;;;;5075534;28;20379;-70
2020/12/08 07:21:21;;;;;;;;;;;4.60;99.90;;;;;;5092013;28;19924;-70
2020/12/08 07:23:47;;;;;;;;;;;4.70;99.90;;;;;;5093658;28;19938;-69
2020/12/08 07:26:15;;;;;;;;;;;4.60;99.90;;;;;;5093204;28;19924;-69
2020/12/08 07:28:41;;;;;;;;;;;4.60;99.90;;;;;;5098873;28;20006;-69
2020/12/08 07:31:16;;;;;;;;;;;4.60;99.90;;;;;;5092060;28;19932;-69
2020/12/08 07:33:42;;;;;;;;;;;4.60;99.90;;;;;;5092993;28;19927;-69
2020/12/08 07:36:10;;;;;;;;;;;4.60;99.90;;;;;;5093531;28;19932;-70
2020/12/08 07:38:38;;;;;;;;;;;4.50;99.90;;;;;;5092375;28;19924;-69
2020/12/08 07:41:04;;;;;;;;;;;4.50;99.90;;;;;;5093184;28;19928;-70
2020/12/08 07:43:31;;;;;;;;;;;4.50;99.90;;;;;;5093273;28;19931;-70
2020/12/08 07:46:03;;;;;;;;;;;4.50;99.90;;;;;;5093199;28;19977;-71
2020/12/08 07:48:29;;;;;;;;;;;4.50;99.90;;;;;;5093578;28;19973;-69
2020/12/08 07:50:57;;;;;;;;;;;4.50;99.90;;;;;;5093631;28;19924;-70
2020/12/08 07:53:23;;;;;;;;;;;4.60;99.90;;;;;;5111259;28;19928;-71
2020/12/08 07:55:49;;;;;;;;;;;4.60;99.90;;;;;;5102713;28;20403;-72
2020/12/08 07:58:15;;;;;;;;;;;4.70;99.90;;;;;;5092343;28;19932;-71
2020/12/08 08:00:42;;;;;;;;;;;4.80;99.90;;;;;;5093166;28;20541;-72
2020/12/08 08:03:08;;;;;;;;;;;4.90;99.90;;;;;;5092354;28;19928;-71
2020/12/08 08:05:34;;;;;;;;;;;5.10;99.90;;;;;;5093062;28;19924;-71
2020/12/08 08:08:01;;;;;;;;;;;5.50;99.90;;;;;;5092782;28;19924;-71
2020/12/08 08:10:27;;;;;;;;;;;6.20;99.90;;;;;;5076629;28;20007;-71
2020/12/08 08:12:53;;;;;;;;;;;7.00;99.90;;;;;;5072337;28;19931;-71
2020/12/08 08:15:20;;;;;;;;;;;7.60;99.90;;;;;;5072168;28;19946;-72
2020/12/08 08:17:47;;;;;;;;;;;8.10;99.90;;;;;;5108763;28;19959;-72
2020/12/08 08:20:14;;;;;;;;;;;8.30;99.90;;;;;;5101987;28;20010;-70
2020/12/08 08:22:40;;;;;;;;;;;8.60;99.90;;;;;;5092859;28;19947;-72
2020/12/08 08:25:06;;;;;;;;;;;9.10;99.90;;;;;;5091864;28;20035;-71
2020/12/08 08:27:33;;;;;;;;;;;9.30;99.90;;;;;;5093203;28;20241;-71
2020/12/08 08:29:59;;;;;;;;;;;9.50;99.90;;;;;;5094207;28;19931;-74
2020/12/08 08:32:25;;;;;;;;;;;9.50;99.90;;;;;;5093803;28;19924;-70
2020/12/08 08:34:53;;;;;;;;;;;9.80;99.90;;;;;;5094112;28;19924;-69
2020/12/08 08:37:19;;;;;;;;;;;9.60;99.90;;;;;;5094032;28;19924;-70
2020/12/08 08:39:45;;;;;;;;;;;9.60;99.90;;;;;;5093797;28;19924;-69
2020/12/08 08:42:12;;;;;;;;;;;9.80;99.90;;;;;;5093589;28;19932;-69
2020/12/08 08:44:38;;;;;;;;;;;9.80;99.90;;;;;;5094009;28;20018;-71
2020/12/08 08:47:04;;;;;;;;;;;10.20;99.90;;;;;;5103816;28;20528;-69
2020/12/08 08:49:31;;;;;;;;;;;10.40;97.90;;;;;;5113949;28;19948;-69
2020/12/08 08:51:58;;;;;;;;;;;10.90;96.80;;;;;;5104235;28;19928;-74
2020/12/08 08:54:24;;;;;;;;;;;11.20;94.30;;;;;;5093599;28;19931;-74
2020/12/08 08:56:54;;;;;;;;;;;11.80;92.80;;;;;;5093309;28;19930;-71
2020/12/08 08:59:21;;;;;;;;;;;12.30;90.60;;;;;;5092860;28;23371;-71
2020/12/08 09:01:48;;;;;;;;;;;12.60;87.80;;;;;;5093136;28;20007;-70
2020/12/08 09:04:14;;;;;;;;;;;12.70;85.70;;;;;;5095683;28;19943;-71
2020/12/08 09:06:41;;;;;;;;;;;12.90;84.20;;;;;;5113354;28;19930;-66
2020/12/08 09:09:08;;;;;;;;;;;13.00;82.10;;;;;;5113671;28;19928;-74
2020/12/08 09:11:34;;;;;;;;;;;13.10;82.70;;;;;;5113202;28;19931;-68
2020/12/08 09:14:00;;;;;;;;;;;13.30;81.40;;;;;;5113543;28;19924;-72
2020/12/08 09:16:27;;;;;;;;;;;13.90;79.00;;;;;;5093909;28;20020;-70
2020/12/08 09:18:54;;;;;;;;;;;14.40;76.20;;;;;;5093255;28;20023;-70
2020/12/08 09:21:20;;;;;;;;;;;14.70;73.50;;;;;;5092860;28;19931;-69
2020/12/08 09:23:46;;;;;;;;;;;14.30;73.20;;;;;;5092833;28;20023;-69
2020/12/08 09:26:14;;;;;;;;;;;14.30;74.10;;;;;;5093052;28;19938;-70
2020/12/08 09:28:42;;;;;;;;;;;14.60;73.40;;;;;;5092871;28;19930;-68
2020/12/08 09:31:09;;;;;;;;;;;14.80;71.70;;;;;;5073316;28;19924;-71
2020/12/08 09:33:37;;;;;;;;;;;15.00;71.00;;;;;;5072531;28;20296;-69
2020/12/08 09:36:03;;;;;;;;;;;14.60;70.70;;;;;;5075095;28;20428;-71
2020/12/08 09:38:29;;;;;;;;;;;14.10;72.60;;;;;;5092695;28;19946;-74
2020/12/08 09:40:56;;;;;;;;;;;14.30;72.80;;;;;;5093544;28;19924;-68
2020/12/08 09:43:23;;;;;;;;;;;14.90;70.60;;;;;;5099106;28;20432;-72
2020/12/08 09:45:49;;;;;;;;;;;15.20;69.60;;;;;;5092536;28;19924;-72
2020/12/08 09:48:16;;;;;;;;;;;15.50;67.90;;;;;;5092569;28;20285;-67
2020/12/08 09:50:42;;;;;;;;;;;15.60;67.20;;;;;;5092188;28;19924;-70
2020/12/08 09:53:08;;;;;;;;;;;15.80;66.50;;;;;;5092195;28;19932;-69
2020/12/08 09:55:35;;;;;;;;;;;15.90;65.50;;;;;;5092456;28;19930;-69
2020/12/08 09:58:01;;;;;;;;;;;15.90;65.10;;;;;;5092542;28;19976;-69
2020/12/08 10:00:28;;;;;;;;;;;16.20;64.70;;;;;;5092345;28;19928;-66
2020/12/08 10:02:55;;;;;;;;;;;16.40;63.50;;;;;;5091440;28;19930;-67
2020/12/08 10:05:22;;;;;;;;;;;16.60;62.10;;;;;;5092454;28;20102;-73
2020/12/08 10:07:48;;;;;;;;;;;16.20;62.50;;;;;;5092353;28;20406;-73
2020/12/08 10:10:14;;;;;;;;;;;16.10;63.00;;;;;;5092775;28;20020;-73
2020/12/08 10:12:41;;;;;;;;;;;16.20;63.50;;;;;;5112395;28;19923;-73
2020/12/08 10:15:07;;;;;;;;;;;16.10;62.50;;;;;;5112611;28;20471;-67
2020/12/08 10:17:34;;;;;;;;;;;15.80;62.90;;;;;;5112730;28;19931;-68
2020/12/08 10:20:01;;;;;;;;;;;15.80;64.70;;;;;;5112592;28;19924;-69
2020/12/08 10:22:27;;;;;;;;;;;15.90;64.50;;;;;;5112240;28;19934;-70
2020/12/08 10:24:54;;;;;;;;;;;16.00;63.50;;;;;;5112395;28;19923;-69
2020/12/08 10:27:20;;;;;;;;;;;15.50;64.10;;;;;;5072286;28;20356;-69
2020/12/08 10:29:46;;;;;;;;;;;15.40;65.10;;;;;;5072090;28;19931;-68
2020/12/08 10:32:13;;;;;;;;;;;15.60;64.90;;;;;;5109953;28;19931;-70
2020/12/08 10:34:41;;;;;;;;;;;15.80;63.60;;;;;;5103772;28;19924;-70
2020/12/08 10:37:07;;;;;;;;;;;15.50;63.70;;;;;;5092396;28;20533;-69
2020/12/08 10:39:34;;;;;;;;;;;15.10;65.20;;;;;;5100839;28;19930;-69
2020/12/08 10:42:00;;;;;;;;;;;15.10;65.10;;;;;;5112178;28;20398;-69
2020/12/08 10:44:26;;;;;;;;;;;15.10;65.20;;;;;;5112454;28;19923;-69
2020/12/08 10:46:53;;;;;;;;;;;15.00;65.40;;;;;;5112365;28;19928;-70
2020/12/08 10:49:19;;;;;;;;;;;15.20;65.70;;;;;;5112364;28;19924;-69
2020/12/08 10:51:46;;;;;;;;;;;15.40;65.10;;;;;;5112186;28;19947;-68
2020/12/08 10:54:13;;;;;;;;;;;15.70;64.60;;;;;;5111964;28;19938;-68
2020/12/08 10:56:40;;;;;;;;;;;16.00;62.80;;;;;;5112289;28;20337;-68
2020/12/08 10:59:06;;;;;;;;;;;16.00;62.30;;;;;;5112265;28;20014;-68
2020/12/08 11:01:33;;;;;;;;;;;15.90;62.30;;;;;;5097576;28;19923;-68
2020/12/08 11:03:59;;;;;;;;;;;15.90;62.40;;;;;;5091695;28;20015;-68
2020/12/08 11:06:27;;;;;;;;;;;15.50;62.30;;;;;;5091794;28;20361;-67
2020/12/08 11:08:54;;;;;;;;;;;14.80;64.40;;;;;;5091745;28;19931;-68
2020/12/08 11:11:21;;;;;;;;;;;14.60;66.20;;;;;;5103245;28;19923;-69
2020/12/08 11:13:48;;;;;;;;;;;14.60;66.10;;;;;;5113967;28;19928;-73
2020/12/08 11:16:15;;;;;;;;;;;14.50;66.70;;;;;;5115564;28;19924;-72
2020/12/08 11:18:41;;;;;;;;;;;14.60;66.10;;;;;;5115844;28;20018;-69
2020/12/08 11:21:07;;;;;;;;;;;14.80;65.90;;;;;;5108955;28;20414;-69
2020/12/08 11:23:34;;;;;;;;;;;15.30;65.20;;;;;;5094923;28;19924;-73
2020/12/08 11:26:01;;;;;;;;;;;15.70;63.40;;;;;;5095095;28;20014;-73
2020/12/08 11:28:27;;;;;;;;;;;15.80;63.40;;;;;;5095425;28;19928;-73
2020/12/08 11:30:54;;;;;;;;;;;15.80;62.30;;;;;;5095174;28;20288;-73
2020/12/08 11:33:20;;;;;;;;;;;15.50;63.80;;;;;;5095128;28;19928;-73
2020/12/08 11:35:46;;;;;;;;;;;15.60;63.00;;;;;;5094983;28;19924;-73
2020/12/08 11:38:13;;;;;;;;;;;15.30;63.40;;;;;;5095041;28;19928;-74
2020/12/08 11:40:39;;;;;;;;;;;15.20;64.10;;;;;;5095049;28;20349;-74
2020/12/08 11:43:06;;;;;;;;;;;15.10;64.70;;;;;;5095801;28;19947;-74
2020/12/08 11:45:33;;;;;;;;;;;15.30;64.50;;;;;;5114822;28;20376;-74
2020/12/08 11:47:59;;;;;;;;;;;15.60;64.50;;;;;;5115686;28;19924;-74
2020/12/08 11:50:25;;;;;;;;;;;15.80;63.40;;;;;;5115421;28;20304;-68
2020/12/08 11:52:52;;;;;;;;;;;16.10;62.80;;;;;;5114939;28;19923;-68
2020/12/08 11:55:18;;;;;;;;;;;16.20;62.50;;;;;;5115218;28;19924;-68
2020/12/08 11:57:45;;;;;;;;;;;16.40;61.70;;;;;;5114798;28;19930;-68
2020/12/08 12:00:12;;;;;;;;;;;16.50;61.50;;;;;;5114803;28;19929;-69
2020/12/08 12:02:38;;;;;;;;;;;16.60;61.10;;;;;;5115006;28;19945;-68
2020/12/08 12:05:05;;;;;;;;;;;16.70;60.70;;;;;;5114608;28;19924;-68
2020/12/08 12:07:31;;;;;;;;;;;16.90;60.50;;;;;;5114788;28;19930;-68
2020/12/08 12:09:57;;;;;;;;;;;17.00;59.70;;;;;;5113873;28;20388;-68
2020/12/08 12:12:24;;;;;;;;;;;16.70;59.90;;;;;;5093875;28;19938;-68
2020/12/08 12:14:50;;;;;;;;;;;16.40;60.80;;;;;;5094348;28;20385;-68
2020/12/08 12:17:17;;;;;;;;;;;16.40;61.50;;;;;;5094515;28;19928;-68
2020/12/08 12:19:44;;;;;;;;;;;16.50;61.10;;;;;;5094218;28;19930;-68
2020/12/08 12:22:10;;;;;;;;;;;16.20;61.10;;;;;;5093870;28;19924;-68
2020/12/08 12:24:36;;;;;;;;;;;16.10;61.80;;;;;;5093366;28;19931;-68
2020/12/08 12:27:04;;;;;;;;;;;16.00;62.10;;;;;;5094143;28;19924;-68
2020/12/08 12:29:31;;;;;;;;;;;16.00;62.60;;;;;;5093794;28;19977;-68
2020/12/08 12:31:57;;;;;;;;;;;15.90;62.60;;;;;;5093484;28;20384;-68
2020/12/08 12:34:24;;;;;;;;;;;15.70;63.20;;;;;;5093735;28;19924;-68
2020/12/08 12:36:51;;;;;;;;;;;15.40;63.80;;;;;;5093969;28;19930;-68
2020/12/08 12:39:17;;;;;;;;;;;15.10;64.80;;;;;;5093049;28;19924;-67
2020/12/08 12:41:44;;;;;;;;;;;14.80;65.70;;;;;;5093518;28;19932;-68
2020/12/08 12:44:10;;;;;;;;;;;14.50;66.60;;;;;;5093918;28;19924;-68
2020/12/08 12:46:37;;;;;;;;;;;14.20;67.60;;;;;;5093561;28;19924;-68
2020/12/08 12:49:03;;;;;;;;;;;14.00;68.10;;;;;;5093791;28;19924;-68
2020/12/08 12:51:31;;;;;;;;;;;13.80;69.00;;;;;;5094451;28;20316;-68
2020/12/08 12:53:58;;;;;;;;;;;13.50;69.80;;;;;;5093484;28;19925;-67
2020/12/08 12:56:24;;;;;;;;;;;13.40;70.50;;;;;;5093395;28;19928;-67
2020/12/08 12:58:51;;;;;;;;;;;13.30;70.70;;;;;;5093582;28;19930;-67
2020/12/08 13:01:18;;;;;;;;;;;13.10;71.40;;;;;;5106125;28;20081;-68
2020/12/08 13:03:44;;;;;;;;;;;13.20;71.90;;;;;;5113445;28;20380;-67
2020/12/08 13:06:11;;;;;;;;;;;13.20;71.60;;;;;;5113744;28;19928;-69
2020/12/08 13:08:38;;;;;;;;;;;13.20;71.80;;;;;;5113621;28;19954;-71
2020/12/08 13:11:06;;;;;;;;;;;13.10;72.00;;;;;;5113209;28;20007;-70
2020/12/08 13:13:32;;;;;;;;;;;13.10;72.30;;;;;;5113362;28;20022;-69
2020/12/08 13:15:59;;;;;;;;;;;12.90;72.90;;;;;;5113337;28;20003;-69
2020/12/08 13:18:25;;;;;;;;;;;12.80;73.30;;;;;;5113661;28;19930;-67
2020/12/08 13:20:53;;;;;;;;;;;12.80;73.80;;;;;;5099966;28;20015;-67
2020/12/08 13:23:19;;;;;;;;;;;12.60;74.10;;;;;;5092755;28;20022;-68
2020/12/08 13:25:46;;;;;;;;;;;12.50;74.70;;;;;;5093183;28;19931;-69
2020/12/08 13:28:13;;;;;;;;;;;11.90;75.30;;;;;;5093017;28;20384;-69
2020/12/08 13:30:39;;;;;;;;;;;11.10;77.80;;;;;;5092899;28;19924;-68
2020/12/08 13:33:06;;;;;;;;;;;10.40;81.00;;;;;;5092502;28;20001;-68
2020/12/08 13:35:32;;;;;;;;;;;9.80;83.60;;;;;;5107259;28;19924;-66
2020/12/08 13:37:58;;;;;;;;;;;9.30;87.20;;;;;;5112211;28;20022;-66
2020/12/08 13:40:25;;;;;;;;;;;8.90;91.40;;;;;;5113363;28;19939;-66
2020/12/08 13:42:52;;;;;;;;;;;8.70;94.80;;;;;;5113197;28;19931;-66
2020/12/08 13:45:18;;;;;;;;;;;8.60;97.40;;;;;;5102306;28;19935;-69
2020/12/08 13:47:45;;;;;;;;;;;8.50;99.80;;;;;;5103995;28;20377;-69
2020/12/08 13:50:12;;;;;;;;;;;8.50;99.90;;;;;;5102985;28;19924;-69
2020/12/08 13:52:39;;;;;;;;;;;8.30;99.90;;;;;;5092370;28;19946;-69
2020/12/08 13:55:05;;;;;;;;;;;8.00;99.90;;;;;;5092432;28;20007;-69
2020/12/08 13:57:32;;;;;;;;;;;7.80;99.90;;;;;;5093861;28;19926;-69
2020/12/08 13:59:59;;;;;;;;;;;7.60;99.90;;;;;;5092591;28;19928;-66
2020/12/08 14:02:25;;;;;;;;;;;7.30;99.90;;;;;;5092113;28;19930;-68
2020/12/08 14:04:52;;;;;;;;;;;7.10;99.90;;;;;;5092485;28;20292;-68
2020/12/08 14:07:19;;;;;;;;;;;7.10;99.90;;;;;;5092295;28;20385;-70
2020/12/08 14:09:45;;;;;;;;;;;6.90;99.90;;;;;;5092432;28;19931;-69
2020/12/08 14:12:11;;;;;;;;;;;6.70;99.90;;;;;;5091966;28;20027;-70
2020/12/08 14:14:38;;;;;;;;;;;6.50;99.90;;;;;;5092452;28;20424;-70
2020/12/08 14:17:05;;;;;;;;;;;6.40;99.90;;;;;;5100513;28;19924;-69
2020/12/08 14:19:32;;;;;;;;;;;6.40;99.90;;;;;;5112534;28;19930;-70
2020/12/08 14:21:59;;;;;;;;;;;6.30;99.90;;;;;;5112323;28;19924;-67